Euskara    
Meteorología y climatología de Navarra
Datos de la estación - Meteo Navarra

Estación de Bera (Larrategaña) GN

Altitud 306 m.


Datos desde el 18/10/2020 hasta el 19/10/2020 en horario solar
Los datos son PROVISIONALES

Anterior Página 1 de 1 Siguiente Descargar: Formato para Excel 2000 o superior   Formato csv   Formato para OpenOffice Calc
Fecha Temperatura Humedad relativa Radiación global Insolación Precipitación Vel. viento 10 m Vel. viento 10 m Dir. viento 10 m
°C % W/m² s l/m² m/s km/h °
18/10/2020 0:00 7.2 100 0.0 0 0.0 2.1 7.6 235
18/10/2020 0:10 7.1 100 0.0 0 0.0 2.2 8.0 232
18/10/2020 0:20 7.1 100 0.0 0 0.0 1.9 6.8 224
18/10/2020 0:30 7.0 100 0.0 0 0.0 2.0 7.3 230
18/10/2020 0:40 6.9 100 0.0 0 0.0 2.4 8.6 226
18/10/2020 0:50 7.0 100 0.0 0 0.0 2.2 7.8 227
18/10/2020 1:00 6.8 100 0.0 0 0.0 2.4 8.7 230
18/10/2020 1:10 6.9 100 0.0 0 0.0 2.8 10.0 226
18/10/2020 1:20 6.9 100 0.0 0 0.0 2.6 9.4 224
18/10/2020 1:30 6.9 100 0.0 0 0.0 2.3 8.3 226
18/10/2020 1:40 6.8 100 0.0 0 0.0 2.6 9.4 224
18/10/2020 1:50 6.8 100 0.0 0 0.0 2.6 9.4 223
18/10/2020 2:00 6.7 100 0.0 0 0.0 2.9 10.4 232
18/10/2020 2:10 6.6 100 0.0 0 0.0 2.7 9.9 228
18/10/2020 2:20 6.6 100 0.0 0 0.0 2.5 8.9 228
18/10/2020 2:30 6.6 100 0.0 0 0.0 2.7 9.6 229
18/10/2020 2:40 6.5 100 0.0 0 0.0 2.4 8.6 230
18/10/2020 2:50 6.4 100 0.0 0 0.0 2.7 9.6 229
18/10/2020 3:00 6.4 100 0.0 0 0.0 2.7 9.8 224
18/10/2020 3:10 6.3 100 0.0 0 0.0 2.3 8.3 231
18/10/2020 3:20 6.3 100 0.0 0 0.0 2.2 8.1 235
18/10/2020 3:30 6.2 100 0.0 0 0.0 2.6 9.3 225
18/10/2020 3:40 6.2 100 0.0 0 0.0 3.0 10.7 225
18/10/2020 3:50 6.2 100 0.0 0 0.0 2.5 9.0 228
18/10/2020 4:00 6.1 100 0.0 0 0.0 2.4 8.5 222
18/10/2020 4:10 6.1 100 0.0 0 0.0 2.4 8.5 221
18/10/2020 4:20 6.0 100 0.0 0 0.0 2.6 9.3 226
18/10/2020 4:30 5.9 100 0.0 0 0.0 2.4 8.6 228
18/10/2020 4:40 5.8 100 0.0 0 0.0 3.0 10.7 230
18/10/2020 4:50 5.7 100 0.0 0 0.0 2.2 8.0 239
18/10/2020 5:00 5.7 100 0.0 0 0.0 1.9 6.8 229
18/10/2020 5:10 5.7 100 0.0 0 0.0 2.1 7.6 227
18/10/2020 5:20 5.6 100 0.0 0 0.0 2.6 9.3 219
18/10/2020 5:30 5.6 100 0.0 0 0.1 2.3 8.2 226
18/10/2020 5:40 5.5 100 0.0 0 0.0 2.5 9.0 231
18/10/2020 5:50 5.4 100 0.0 0 0.0 2.4 8.6 231
18/10/2020 6:00 5.4 100 0.0 0 0.0 2.6 9.3 231
18/10/2020 6:10 5.3 100 0.0 0 0.0 2.5 9.1 228
18/10/2020 6:20 5.2 100 0.0 0 0.0 3.0 10.6 230
18/10/2020 6:30 5.3 100 0.0 0 0.0 2.1 7.6 225
18/10/2020 6:40 5.3 100 3.7 0 0.0 2.4 8.8 228
18/10/2020 6:50 5.3 100 29.6 358 0.0 2.7 9.6 234
18/10/2020 7:00 5.2 100 43.3 600 0.0 2.5 9.1 229
18/10/2020 7:10 5.3 100 60.4 590 0.0 2.5 8.9 222
18/10/2020 7:20 5.3 100 73.2 342 0.0 2.7 9.6 227
18/10/2020 7:30 5.4 100 69.1 128 0.0 2.5 9.0 227
18/10/2020 7:40 5.4 100 78.6 0 0.0 2.5 9.1 224
18/10/2020 7:50 5.5 100 99.2 0 0.0 3.0 10.9 224
18/10/2020 8:00 5.6 100 117.8 0 0.0 3.0 10.7 222
18/10/2020 8:10 5.6 100 116.5 0 0.0 2.8 10.2 228
18/10/2020 8:20 5.6 100 111.1 0 0.0 1.7 6.1 232
18/10/2020 8:30 5.7 100 156.6 114 0.0 3.1 11.0 233
18/10/2020 8:40 6.1 100 292.8 600 0.0 2.2 7.8 228
18/10/2020 8:50 6.5 100 319.1 600 0.0 2.6 9.2 219
18/10/2020 9:00 6.5 100 281.5 478 0.0 2.9 10.3 226
18/10/2020 9:10 6.6 100 223.3 168 0.0 2.5 9.1 219
18/10/2020 9:20 7.0 100 418.9 600 0.0 2.4 8.5 218
18/10/2020 9:30 7.3 100 376.0 600 0.0 3.1 11.3 222
18/10/2020 9:40 7.7 99 544.7 600 0.0 2.7 9.8 222
18/10/2020 9:50 8.6 95 493.6 600 0.0 2.3 8.1 217
18/10/2020 10:00 9.2 88 304.3 346 0.0 3.0 10.7 222
18/10/2020 10:10 9.5 88 356.1 378 0.0 2.9 10.6 219
18/10/2020 10:20 9.9 84 495.3 600 0.0 2.3 8.2 212
18/10/2020 10:30 10.6 82 586.4 600 0.0 2.4 8.5 223
18/10/2020 10:40 11.5 79 527.8 600 0.0 1.7 6.0 223
18/10/2020 10:50 12.0 75 547.7 600 0.0 2.0 7.3 223
18/10/2020 11:00 12.5 69 564.3 600 0.0 1.8 6.5 224
18/10/2020 11:10 13.6 67 624.6 600 0.0 1.5 5.5 226
18/10/2020 11:20 14.2 65 628.2 600 0.0 1.3 4.6 221
18/10/2020 11:30 14.7 63 631.7 600 0.0 1.6 5.8 221
18/10/2020 11:40 15.4 59 635.3 600 0.0 1.2 4.4 218
18/10/2020 11:50 16.2 58 636.1 600 0.0 1.2 4.3 226
18/10/2020 12:00 16.4 57 635.9 600 0.0 1.1 4.0 223
18/10/2020 12:10 16.9 60 632.9 600 0.0 0.7 2.5 41
18/10/2020 12:20 17.4 57 628.5 600 0.0 0.7 2.4 32
18/10/2020 12:30 17.4 58 623.4 600 0.0 0.9 3.3 29
18/10/2020 12:40 18.2 57 615.8 600 0.0 0.7 2.3 308
18/10/2020 12:50 18.6 56 607.4 600 0.0 1.0 3.6 0
18/10/2020 13:00 17.7 55 599.3 600 0.0 1.8 6.4 30
18/10/2020 13:10 17.7 57 591.2 600 0.0 1.9 6.7 37
18/10/2020 13:20 18.0 55 576.9 600 0.0 1.9 6.8 41
18/10/2020 13:30 18.3 51 561.8 600 0.0 1.9 6.9 38
18/10/2020 13:40 18.4 50 545.7 600 0.0 1.4 5.1 30
18/10/2020 13:50 18.8 50 527.9 600 0.0 1.2 4.2 10
18/10/2020 14:00 19.1 47 506.8 600 0.0 1.1 3.9 4
18/10/2020 14:10 19.3 47 489.5 600 0.0 1.1 3.9 7
18/10/2020 14:20 19.2 46 465.3 600 0.0 1.2 4.2 27
18/10/2020 14:30 19.2 45 433.0 600 0.0 1.0 3.4 357
18/10/2020 14:40 19.2 45 389.8 600 0.0 1.1 3.8 344
18/10/2020 14:50 19.5 43 380.2 600 0.0 0.8 2.8 355
18/10/2020 15:00 19.4 41 347.5 600 0.0 1.1 3.8 13
18/10/2020 15:10 19.3 42 317.6 600 0.0 1.0 3.7 339
18/10/2020 15:20 19.3 40 288.6 600 0.0 0.8 3.0 346
18/10/2020 15:30 19.4 40 261.1 600 0.0 0.6 2.2 340
18/10/2020 15:40 19.8 40 219.6 600 0.0 0.8 2.7 294
18/10/2020 15:50 20.1 48 208.0 600 0.0 1.2 4.3 229
18/10/2020 16:00 19.3 50 192.4 600 0.0 1.4 4.9 231
18/10/2020 16:10 19.4 51 158.2 600 0.0 0.7 2.6 238
18/10/2020 16:20 19.4 52 136.6 600 0.0 0.6 2.2 157
18/10/2020 16:30 18.2 56 110.4 600 0.0 1.5 5.4 144
18/10/2020 16:40 17.9 59 84.0 600 0.0 1.0 3.7 204
18/10/2020 16:50 17.4 62 56.9 600 0.0 1.4 4.9 252
18/10/2020 17:00 16.6 64 32.3 334 0.0 1.1 3.8 216
18/10/2020 17:10 16.0 66 2.3 0 0.0 1.3 4.7 233
18/10/2020 17:20 15.4 68 0.0 0 0.0 1.5 5.3 237
18/10/2020 17:30 14.9 74 0.0 0 0.0 2.2 7.8 233
18/10/2020 17:40 14.3 76 0.0 0 0.0 2.0 7.1 241
18/10/2020 17:50 14.7 73 0.0 0 0.0 1.7 6.1 230
18/10/2020 18:00 14.5 74 0.0 0 0.0 1.8 6.4 238
18/10/2020 18:10 14.1 76 0.0 0 0.0 2.4 8.7 240
18/10/2020 18:20 13.6 78 0.0 0 0.0 2.3 8.3 240
18/10/2020 18:30 12.9 83 0.0 0 0.0 2.3 8.3 231
18/10/2020 18:40 12.4 86 0.0 0 0.0 2.5 8.8 233
18/10/2020 18:50 12.4 86 0.0 0 0.0 2.5 8.8 236
18/10/2020 19:00 12.5 85 0.0 0 0.0 2.8 10.2 235
18/10/2020 19:10 12.5 85 0.0 0 0.0 2.5 8.9 231
18/10/2020 19:20 12.0 88 0.0 0 0.0 2.3 8.1 235
18/10/2020 19:30 11.8 89 0.0 0 0.0 2.0 7.0 236
18/10/2020 19:40 11.4 91 0.0 0 0.0 2.3 8.3 235
18/10/2020 19:50 11.4 91 0.0 0 0.0 2.2 7.8 242
18/10/2020 20:00 11.5 90 0.0 0 0.0 2.3 8.3 238
18/10/2020 20:10 11.0 92 0.0 0 0.0 3.0 10.7 233
18/10/2020 20:20 11.1 90 0.0 0 0.0 2.6 9.4 233
18/10/2020 20:30 11.2 89 0.0 0 0.0 2.6 9.5 236
18/10/2020 20:40 11.0 90 0.0 0 0.0 2.6 9.2 236
18/10/2020 20:50 10.8 91 0.0 0 0.0 2.7 9.8 243
18/10/2020 21:00 10.8 90 0.0 0 0.0 3.1 11.0 238
18/10/2020 21:10 10.8 90 0.0 0 0.0 2.7 9.8 239
18/10/2020 21:20 10.7 90 0.0 0 0.0 2.5 9.1 237
18/10/2020 21:30 10.6 90 0.0 0 0.0 2.9 10.5 241
18/10/2020 21:40 10.5 90 0.0 0 0.0 2.8 10.2 234
18/10/2020 21:50 10.4 90 0.0 0 0.0 2.9 10.5 233
18/10/2020 22:00 10.7 87 0.0 0 0.0 2.6 9.5 225
18/10/2020 22:10 10.5 87 0.0 0 0.0 2.3 8.1 226
18/10/2020 22:20 10.2 89 0.0 0 0.0 2.8 10.2 229
18/10/2020 22:30 10.0 90 0.0 0 0.0 3.0 10.9 226
18/10/2020 22:40 10.3 87 0.0 0 0.0 2.9 10.5 229
18/10/2020 22:50 10.7 85 0.0 0 0.0 3.4 12.1 230
18/10/2020 23:00 11.0 83 0.0 0 0.0 3.5 12.6 230
18/10/2020 23:10 10.7 84 0.0 0 0.0 3.4 12.1 231
18/10/2020 23:20 10.7 84 0.0 0 0.0 3.7 13.4 226
18/10/2020 23:30 11.0 81 0.0 0 0.0 4.1 14.8 223
18/10/2020 23:40 11.2 80 0.0 0 0.0 4.3 15.6 217
18/10/2020 23:50 11.8 76 0.0 0 0.0 4.2 15.1 207
Anterior Página 1 de 1 Siguiente

NOTA: Tipo de datos según el color:
   - Valores diarios o 10 minutos correctos
   - Valores diarios calculados a partir de un número de datos 10 minutos menor que 144 y mayor que 120, o de un número de datos semihorarios menor que 48 y mayor que 40 (caso de las estaciones de INTIA Y Ministerio)
   - Valores diez minutos estimados


Contacto        Enlaces        Aviso legal